Juan de Fuca Strait - east entrance: Past 24 Hour Conditions

 

Victoria Int'l Airport

08:00 PM PDT 20 October 2014
This table is a summary of hourly weather conditions for the past 24 hours.
Date / Time
(PDT)
Wind(knots) Conditions Visibility(km) Pressure(kPa) Air tempC) Relative humidity(%) Dew pointC)
20 October 2014
20:00 S 2 Mostly Cloudy 32 100.7 13 96 12
19:00 N 1 Light Rain 32 100.6 14 88 12
18:00 SE 4 Mostly Cloudy 32 100.6 15 80 11
17:00 SE 8 Mostly Cloudy 32 100.6 16 74 11
16:00 SE 9 Mostly Cloudy 32 100.6 16 72 11
15:00 SE 12 Mostly Cloudy 32 100.6 15 85 12
14:00 SE 11 Mostly Cloudy 24 100.6 13 96 12
13:00 ESE 8 Mostly Cloudy 24 100.6 13 93 12
12:00 ESE 8 Mostly Cloudy 24 100.6 13 95 12
11:00 SSW 6 Partly Cloudy 32 100.6 16 70 11
10:00 SW 8 Mostly Cloudy 32 100.6 15 73 10
9:00 E 2 Mostly Cloudy 13 100.5 13 98 12
8:00 ENE 3 Mostly Cloudy 13 100.5 13 98 12
7:00 SSE 6 Mostly Cloudy 13 100.4 13 96 13
6:00 SE 6 Mist 5 100.4 13 98 13
5:00 ESE 4 Light Rain 5 100.4 12 98 12
4:00 SW 3 Light Rain 24 100.4 12 98 12
3:00 WSW 3 Light Rain 13 100.4 12 98 12
2:00 WSW 2 Light Rainshower 5 100.5 13 97 12
1:00 W 6 Light Rain 5 100.5 13 97 12
0:00 WSW 4 Rainshower 8 100.4 13 96 12
19 October 2014
23:00 WNW 10 Light Rain 19 100.4 13 94 12
22:00 WNW 8 Light Rain 32 100.4 14 91 13
21:00 WNW 12 Light Rain 32 100.4 15 93 14
20:00 SW 5 Light Rain 48 100.4 15 91 14
 
Map of Pacific - Georgia Basin marine weather areas Tsawwassen Ferry Terminal Sentry Shoal - 46131 Halibut Bank - 46146 La Perouse Bank - 46206 Discovery Island Esquimalt Harbour Kelp Reefs Malahat Race Rocks Lightstation Saturna Island Sheringham Point University of Victoria Victoria Gonzales Victoria Int'l Airport Ballenas Islands Campbell River Airport Comox Airport Entrance Island Fanny Island Nanaimo Airport Sisters Islets Estevan Point Tofino Airport Grief Point Powell River Airport Sechelt Point Atkinson Sand Heads Lightstation Vancouver Harbour Vancouver Int'l Airport West Vancouver Port Alberni Howe Sound - Pam Rocks Squamish Airport